createdAt,value
2018-09-14T00:00:08.655Z,21.27
2018-09-14T00:02:37.277Z,22.23
2018-09-14T00:05:06.645Z,19.47
2018-09-14T00:07:35.499Z,20.77
2018-09-14T00:10:04.474Z,20.57
2018-09-14T00:12:33.150Z,20.27
2018-09-14T00:15:01.802Z,17.43
2018-09-14T00:17:30.487Z,21.53
2018-09-14T00:19:59.077Z,17.53
2018-09-14T00:22:27.655Z,22.10
2018-09-14T00:24:56.957Z,22.60
2018-09-14T00:27:25.741Z,20.93
2018-09-14T00:29:54.949Z,19.07
2018-09-14T00:32:23.874Z,18.37
2018-09-14T00:34:53.013Z,20.80
2018-09-14T00:37:21.554Z,19.17
2018-09-14T00:39:50.691Z,19.43
2018-09-14T00:42:19.236Z,20.03
2018-09-14T00:44:47.885Z,15.30
2018-09-14T00:47:16.711Z,17.27
2018-09-14T00:49:45.420Z,18.77
2018-09-14T00:52:14.296Z,16.70
2018-09-14T00:54:42.896Z,17.07
2018-09-14T00:57:11.508Z,19.33
2018-09-14T00:59:40.152Z,16.23
2018-09-14T01:02:09.149Z,16.50
2018-09-14T01:04:37.738Z,16.63
2018-09-14T01:07:06.782Z,18.23
2018-09-14T01:09:35.724Z,19.43
2018-09-14T01:12:04.397Z,17.43
2018-09-14T01:14:33.014Z,19.53
2018-09-14T01:17:01.600Z,17.80
2018-09-14T01:19:30.168Z,18.67
2018-09-14T01:21:58.799Z,18.97
2018-09-14T01:24:27.345Z,17.60
2018-09-14T01:26:56.679Z,18.27
2018-09-14T01:29:25.380Z,17.33
2018-09-14T01:31:54.427Z,18.47
2018-09-14T01:34:23.083Z,18.00
2018-09-14T01:36:51.740Z,15.77
2018-09-14T01:39:20.383Z,19.63
2018-09-14T01:41:49.107Z,18.73
2018-09-14T01:44:17.683Z,16.30
2018-09-14T01:46:46.240Z,16.60
2018-09-14T01:49:14.860Z,17.40
2018-09-14T01:51:43.484Z,18.60
2018-09-14T01:54:13.428Z,17.77
2018-09-14T01:56:42.049Z,19.03
2018-09-14T01:59:10.729Z,16.63
2018-09-14T02:01:39.381Z,18.67
2018-09-14T02:04:08.428Z,17.93
2018-09-14T02:06:37.135Z,15.60
2018-09-14T02:09:08.003Z,16.07
2018-09-14T02:11:36.577Z,16.83
2018-09-14T02:14:05.489Z,19.20
2018-09-14T02:16:34.060Z,17.67
2018-09-14T02:19:02.805Z,17.73
2018-09-14T02:21:31.330Z,16.53
2018-09-14T02:23:59.891Z,16.00
2018-09-14T02:26:28.766Z,16.60
2018-09-14T02:28:57.464Z,20.87
2018-09-14T02:31:26.282Z,16.37
2018-09-14T02:33:55.393Z,17.57
2018-09-14T02:36:23.900Z,19.27
2018-09-14T02:38:52.488Z,17.27
2018-09-14T02:41:21.992Z,20.50
2018-09-14T02:43:50.575Z,17.87
2018-09-14T02:46:19.607Z,18.90
2018-09-14T02:48:48.788Z,19.97
2018-09-14T02:51:17.367Z,16.17
2018-09-14T02:53:46.212Z,21.67
2018-09-14T02:56:14.827Z,17.53
2018-09-14T02:58:44.350Z,18.20
2018-09-14T03:01:12.937Z,19.13
2018-09-14T03:03:41.528Z,20.30
2018-09-14T03:06:10.755Z,20.00
2018-09-14T03:08:39.253Z,16.83
2018-09-14T03:11:08.352Z,20.57
2018-09-14T03:13:38.075Z,18.57
2018-09-14T03:16:06.757Z,19.90
2018-09-14T03:18:35.438Z,17.40
2018-09-14T03:21:04.100Z,19.77
2018-09-14T03:23:32.635Z,19.57
2018-09-14T03:26:01.468Z,20.47
2018-09-14T03:28:30.244Z,16.20
2018-09-14T03:30:58.814Z,17.00
2018-09-14T03:33:27.520Z,18.30
2018-09-14T03:35:56.073Z,16.37
2018-09-14T03:38:24.659Z,16.50
2018-09-14T03:40:53.196Z,15.83
2018-09-14T03:43:21.794Z,15.63
2018-09-14T03:45:50.548Z,16.03
2018-09-14T03:48:19.099Z,15.30
2018-09-14T03:50:48.003Z,15.63
2018-09-14T03:53:16.783Z,16.33
2018-09-14T03:55:45.505Z,16.57
2018-09-14T03:58:14.100Z,17.10
2018-09-14T04:00:42.896Z,15.57
2018-09-14T04:03:11.515Z,23.70
2018-09-14T04:05:40.079Z,16.47
2018-09-14T04:08:09.056Z,18.50
2018-09-14T04:10:37.940Z,16.13
2018-09-14T04:13:08.684Z,18.83
2018-09-14T04:15:38.685Z,20.87
2018-09-14T04:18:08.208Z,17.03
2018-09-14T04:20:37.183Z,21.40
2018-09-14T04:23:06.593Z,21.27
2018-09-14T04:25:35.852Z,20.10
2018-09-14T04:28:05.258Z,21.73
2018-09-14T04:30:33.857Z,24.73
2018-09-14T04:33:02.476Z,21.53
2018-09-14T04:35:30.987Z,21.03
2018-09-14T04:37:59.656Z,22.03
2018-09-14T04:40:28.416Z,20.83
2018-09-14T04:42:57.372Z,21.27
2018-09-14T04:45:27.189Z,23.53
2018-09-14T04:47:55.911Z,26.90
2018-09-14T04:50:25.825Z,24.63
2018-09-14T04:52:54.611Z,25.77
2018-09-14T04:55:23.365Z,23.90
2018-09-14T04:57:52.822Z,27.00
2018-09-14T05:00:21.915Z,26.53
2018-09-14T05:02:50.807Z,30.27
2018-09-14T05:05:20.065Z,26.40
2018-09-14T05:07:48.719Z,29.53
2018-09-14T05:10:17.984Z,26.20
2018-09-14T05:12:47.052Z,29.87
2018-09-14T05:15:16.033Z,31.60
2018-09-14T05:17:44.615Z,30.73
2018-09-14T05:20:13.748Z,33.10
2018-09-14T05:22:42.988Z,32.40
2018-09-14T05:25:11.752Z,36.50
2018-09-14T05:27:41.032Z,39.37
2018-09-14T05:30:09.687Z,36.83
2018-09-14T05:32:38.267Z,38.90
2018-09-14T05:35:07.844Z,34.47
2018-09-14T05:37:36.452Z,32.90
2018-09-14T05:40:05.182Z,32.63
2018-09-14T05:42:33.824Z,31.33
2018-09-14T05:45:02.457Z,31.73
2018-09-14T05:47:31.770Z,32.40
2018-09-14T05:50:01.039Z,32.83
2018-09-14T05:52:30.398Z,34.60
2018-09-14T05:55:00.072Z,34.57
2018-09-14T05:57:31.110Z,37.67
2018-09-14T06:00:01.072Z,42.20
2018-09-14T06:02:30.654Z,41.50
2018-09-14T06:04:59.283Z,43.00
2018-09-14T06:07:28.005Z,39.93
2018-09-14T06:09:57.101Z,40.67
2018-09-14T06:12:26.018Z,38.67
2018-09-14T06:14:54.993Z,38.27
2018-09-14T06:17:24.021Z,36.20
2018-09-14T06:19:53.250Z,35.87
2018-09-14T06:22:22.069Z,35.83
2018-09-14T06:24:50.718Z,33.07
2018-09-14T06:27:19.591Z,38.73
2018-09-14T06:29:48.505Z,36.50
2018-09-14T06:32:17.415Z,37.83
2018-09-14T06:34:46.053Z,43.90
2018-09-14T06:37:16.461Z,38.03
2018-09-14T06:39:46.027Z,37.87
2018-09-14T06:42:15.625Z,38.40
2018-09-14T06:44:45.074Z,40.03
2018-09-14T06:47:13.882Z,38.47
2018-09-14T06:49:42.685Z,38.87
2018-09-14T06:52:11.543Z,37.57
2018-09-14T06:54:41.988Z,38.07
2018-09-14T06:57:11.696Z,34.83
2018-09-14T06:59:40.835Z,36.50
2018-09-14T07:02:09.988Z,32.03
2018-09-14T07:04:38.667Z,36.43
2018-09-14T07:07:07.568Z,36.47
2018-09-14T07:09:37.063Z,36.93
2018-09-14T07:12:06.123Z,34.87
2018-09-14T07:14:36.008Z,36.17
2018-09-14T07:17:04.780Z,37.23
2018-09-14T07:19:33.645Z,37.10
2018-09-14T07:22:02.220Z,38.47
2018-09-14T07:24:31.943Z,44.07
2018-09-14T07:27:00.515Z,41.03
2018-09-14T07:29:29.107Z,41.03
2018-09-14T07:31:57.958Z,34.90
2018-09-14T07:34:27.609Z,40.00
2018-09-14T07:36:56.539Z,38.07
2018-09-14T07:39:25.840Z,36.97
2018-09-14T07:41:56.148Z,36.07
2018-09-14T07:44:25.502Z,33.77
2018-09-14T07:46:54.318Z,38.90
2018-09-14T07:49:23.002Z,34.17
2018-09-14T07:51:51.891Z,37.77
2018-09-14T07:54:20.553Z,35.23
2018-09-14T07:56:49.131Z,35.43
2018-09-14T07:59:17.826Z,42.50
2018-09-14T08:01:46.853Z,36.20
2018-09-14T08:04:17.257Z,34.07
2018-09-14T08:06:47.401Z,34.63
2018-09-14T08:09:16.404Z,32.20
2018-09-14T08:11:45.077Z,28.97
2018-09-14T08:14:13.684Z,30.30
2018-09-14T08:16:43.280Z,34.33
2018-09-14T08:19:12.126Z,33.73
2018-09-14T08:21:40.941Z,32.33
2018-09-14T08:24:10.384Z,32.03
2018-09-14T08:26:39.242Z,30.10
2018-09-14T08:29:07.997Z,28.90
2018-09-14T08:31:36.773Z,27.03
2018-09-14T08:34:05.692Z,32.87
2018-09-14T08:36:34.492Z,29.60
2018-09-14T08:39:03.657Z,27.93
2018-09-14T08:41:32.525Z,26.97
2018-09-14T08:44:01.591Z,28.37
2018-09-14T08:46:30.643Z,28.77
2018-09-14T08:48:59.946Z,27.27
2018-09-14T08:51:28.588Z,26.30
2018-09-14T08:53:57.699Z,26.10
2018-09-14T08:56:26.267Z,28.50
2018-09-14T08:58:55.268Z,25.40
2018-09-14T09:01:24.053Z,25.17
2018-09-14T09:03:53.781Z,24.00
2018-09-14T09:06:22.589Z,24.13
2018-09-14T09:08:52.003Z,24.27
2018-09-14T09:11:21.057Z,21.83
2018-09-14T09:14:04.238Z,23.37
2018-09-14T09:16:33.018Z,21.27
2018-09-14T09:19:01.761Z,23.80
2018-09-14T09:21:30.327Z,22.33
2018-09-14T09:23:59.472Z,22.50
2018-09-14T09:26:28.205Z,20.93
2018-09-14T09:28:57.406Z,19.60
2018-09-14T09:31:26.305Z,24.97
2018-09-14T09:33:55.077Z,30.67
2018-09-14T09:36:23.787Z,26.97
2018-09-14T09:38:52.370Z,26.13
2018-09-14T09:41:21.550Z,27.13
2018-09-14T09:43:50.546Z,26.10
2018-09-14T09:46:19.307Z,27.10
2018-09-14T09:48:48.290Z,26.57
2018-09-14T09:51:17.907Z,23.43
2018-09-14T09:53:46.430Z,24.17
2018-09-14T09:56:15.099Z,26.10
2018-09-14T09:58:43.697Z,24.90
2018-09-14T10:01:17.925Z,24.00
2018-09-14T10:03:52.506Z,27.43
2018-09-14T10:06:24.676Z,24.33
2018-09-14T10:08:55.274Z,25.40
2018-09-14T10:11:24.154Z,22.17
2018-09-14T10:13:53.229Z,24.90
2018-09-14T10:16:21.873Z,26.40
2018-09-14T10:18:51.390Z,27.03
2018-09-14T10:21:20.264Z,25.30
2018-09-14T10:23:49.032Z,28.83
2018-09-14T10:26:17.723Z,29.07
2018-09-14T10:28:46.538Z,31.50
2018-09-14T10:31:15.199Z,31.37
2018-09-14T10:33:43.958Z,28.37
2018-09-14T10:36:12.566Z,30.90
2018-09-14T10:38:41.243Z,27.07
2018-09-14T10:41:10.423Z,30.97
2018-09-14T10:43:38.988Z,28.97
2018-09-14T10:46:07.569Z,28.10
2018-09-14T10:48:36.634Z,25.80
2018-09-14T10:51:05.316Z,28.50
2018-09-14T10:53:33.848Z,28.50
2018-09-14T10:56:02.889Z,27.97
2018-09-14T10:58:37.286Z,28.63
2018-09-14T11:01:06.004Z,29.07
2018-09-14T11:03:34.592Z,26.90
2018-09-14T11:06:04.362Z,28.17
2018-09-14T11:08:34.332Z,26.00
2018-09-14T11:11:03.876Z,26.17
2018-09-14T11:13:32.601Z,24.07
2018-09-14T11:16:01.644Z,23.90
2018-09-14T11:18:30.260Z,21.83
2018-09-14T11:20:58.978Z,20.07
2018-09-14T11:23:27.621Z,21.83
2018-09-14T11:25:56.595Z,19.27
2018-09-14T11:28:25.209Z,21.27
2018-09-14T11:30:53.864Z,23.67
2018-09-14T11:33:22.982Z,22.30
2018-09-14T11:35:54.142Z,24.50
2018-09-14T11:38:23.714Z,20.80
2018-09-14T11:40:52.515Z,21.67
2018-09-14T11:43:21.163Z,19.13
2018-09-14T11:45:49.816Z,20.73
2018-09-14T11:48:18.679Z,19.53
2018-09-14T11:50:47.416Z,19.00
2018-09-14T11:53:16.024Z,20.07
2018-09-14T11:55:44.590Z,18.13
2018-09-14T11:58:13.388Z,17.50
2018-09-14T12:00:42.130Z,17.30
2018-09-14T12:03:11.248Z,16.30
2018-09-14T12:05:40.142Z,14.83
2018-09-14T12:08:09.750Z,17.77
2018-09-14T12:10:38.739Z,15.33
2018-09-14T12:13:08.464Z,19.93
2018-09-14T12:15:37.156Z,17.03
2018-09-14T12:18:06.293Z,17.27
2018-09-14T12:20:34.905Z,24.57
2018-09-14T12:23:03.794Z,18.57
2018-09-14T12:25:32.348Z,14.53
2018-09-14T12:28:01.399Z,19.53
2018-09-14T12:30:30.387Z,14.27
2018-09-14T12:32:59.255Z,16.47
2018-09-14T12:35:28.477Z,13.00
2018-09-14T12:37:57.006Z,14.33
2018-09-14T12:40:26.443Z,12.60
2018-09-14T12:42:55.787Z,13.47
2018-09-14T12:45:24.732Z,12.70
2018-09-14T12:47:53.762Z,14.10
2018-09-14T12:50:23.043Z,11.70
2018-09-14T12:52:52.375Z,11.53
2018-09-14T12:55:21.977Z,12.30
2018-09-14T12:57:50.522Z,15.27
2018-09-14T13:00:20.263Z,11.97
2018-09-14T13:02:49.612Z,11.70
2018-09-14T13:05:18.151Z,11.80
2018-09-14T13:07:46.740Z,12.20
2018-09-14T13:10:15.511Z,11.97
2018-09-14T13:12:44.064Z,14.43
2018-09-14T13:15:12.656Z,12.27
2018-09-14T13:17:41.379Z,12.13
2018-09-14T13:20:11.051Z,12.77
2018-09-14T13:22:39.776Z,10.87
2018-09-14T13:25:08.449Z,11.57
2018-09-14T13:27:38.244Z,14.00
2018-09-14T13:30:08.132Z,15.90
2018-09-14T13:32:36.896Z,12.10
2018-09-14T13:35:05.467Z,12.80
2018-09-14T13:37:34.036Z,13.37
2018-09-14T13:40:02.648Z,11.63
2018-09-14T13:42:31.205Z,12.73
2018-09-14T13:45:00.419Z,11.23
2018-09-14T13:47:29.002Z,11.43
2018-09-14T13:49:58.051Z,11.63
2018-09-14T13:52:27.723Z,9.13
2018-09-14T13:54:56.432Z,11.20
2018-09-14T13:57:25.034Z,11.33
2018-09-14T13:59:53.780Z,10.00
2018-09-14T14:02:23.526Z,10.03
2018-09-14T14:04:52.520Z,9.97
2018-09-14T14:07:21.174Z,12.50
2018-09-14T14:09:50.171Z,13.23
2018-09-14T14:12:18.771Z,10.53
2018-09-14T14:14:47.844Z,9.27
2018-09-14T14:17:16.526Z,9.80
2018-09-14T14:19:45.163Z,9.20
2018-09-14T14:22:14.441Z,10.17
2018-09-14T14:24:43.745Z,10.27
2018-09-14T14:27:12.426Z,10.07
2018-09-14T14:29:41.756Z,9.50
2018-09-14T14:32:10.630Z,9.97
2018-09-14T14:34:39.606Z,10.00
2018-09-14T14:37:08.425Z,8.97
2018-09-14T14:39:38.649Z,9.97
2018-09-14T14:42:07.904Z,9.37
2018-09-14T14:44:37.367Z,7.80
2018-09-14T14:47:06.146Z,8.33
2018-09-14T14:49:36.012Z,8.87
2018-09-14T14:52:04.990Z,9.07
2018-09-14T14:54:35.323Z,10.87
2018-09-14T14:57:04.786Z,8.33
2018-09-14T14:59:33.690Z,9.03
2018-09-14T15:02:02.477Z,9.03
2018-09-14T15:04:31.740Z,11.50
2018-09-14T15:07:00.940Z,9.17
2018-09-14T15:09:30.135Z,10.20
2018-09-14T15:12:00.697Z,8.17
2018-09-14T15:14:30.337Z,8.10
2018-09-14T15:16:58.926Z,6.70
2018-09-14T15:19:28.310Z,7.87
2018-09-14T15:21:57.947Z,7.20
2018-09-14T15:24:27.461Z,8.93
2018-09-14T15:26:57.351Z,7.20
2018-09-14T15:29:26.271Z,7.20
2018-09-14T15:31:55.315Z,7.00
2018-09-14T15:34:25.180Z,7.83
2018-09-14T15:36:53.784Z,6.93
2018-09-14T15:39:22.401Z,8.47
2018-09-14T15:41:51.721Z,7.57
2018-09-14T15:44:20.395Z,6.90
2018-09-14T15:46:49.125Z,6.67
2018-09-14T15:49:17.848Z,7.03
2018-09-14T15:51:46.671Z,6.80
2018-09-14T15:54:15.351Z,6.80
2018-09-14T15:56:44.755Z,7.23
2018-09-14T15:59:13.623Z,6.53
2018-09-14T16:01:43.381Z,6.77
2018-09-14T16:04:11.993Z,8.13
2018-09-14T16:06:41.119Z,6.87
2018-09-14T16:09:10.983Z,7.73
2018-09-14T16:11:39.854Z,6.87
2018-09-14T16:14:09.247Z,6.67
2018-09-14T16:16:37.989Z,8.83
2018-09-14T16:19:07.562Z,8.30
2018-09-14T16:21:36.228Z,7.67
2018-09-14T16:24:05.123Z,7.40
2018-09-14T16:26:33.781Z,9.33
2018-09-14T16:29:02.991Z,11.67
2018-09-14T16:31:31.554Z,13.00
2018-09-14T16:34:00.249Z,12.97
2018-09-14T16:36:29.802Z,12.80
2018-09-14T16:38:58.473Z,15.43
2018-09-14T16:41:27.108Z,12.83
2018-09-14T16:43:55.974Z,12.70
2018-09-14T16:46:24.581Z,13.13
2018-09-14T16:48:54.727Z,13.43
2018-09-14T16:51:23.380Z,15.47
2018-09-14T16:53:52.686Z,13.43
2018-09-14T16:56:22.295Z,16.00
2018-09-14T16:58:51.013Z,17.93
2018-09-14T17:01:20.585Z,16.20
2018-09-14T17:03:50.472Z,17.77
2018-09-14T17:06:19.313Z,14.17
2018-09-14T17:08:49.021Z,15.20
2018-09-14T17:11:18.168Z,16.80
2018-09-14T17:13:47.247Z,14.07
2018-09-14T17:16:15.887Z,14.30
2018-09-14T17:18:45.189Z,14.60
2018-09-14T17:21:14.078Z,17.67
2018-09-14T17:23:42.752Z,14.17
2018-09-14T17:26:12.188Z,15.80
2018-09-14T17:28:40.770Z,16.63
2018-09-14T17:31:09.599Z,16.53
2018-09-14T17:33:38.544Z,18.27
2018-09-14T17:36:07.181Z,17.03
2018-09-14T17:38:35.808Z,17.40
2018-09-14T17:41:04.621Z,19.50
2018-09-14T17:43:34.000Z,17.67
2018-09-14T17:46:03.208Z,18.47
2018-09-14T17:48:32.704Z,17.77
2018-09-14T17:51:04.486Z,17.57
2018-09-14T17:53:33.251Z,20.77
2018-09-14T17:56:01.992Z,17.70
2018-09-14T17:58:31.160Z,20.90
2018-09-14T18:00:59.923Z,20.13
2018-09-14T18:03:28.723Z,18.77
2018-09-14T18:06:02.708Z,22.20
2018-09-14T18:08:32.953Z,16.83
2018-09-14T18:11:01.923Z,19.17
2018-09-14T18:13:30.497Z,18.80
2018-09-14T18:15:59.272Z,17.80
2018-09-14T18:18:28.210Z,18.00
2018-09-14T18:20:57.286Z,20.27
2018-09-14T18:23:26.634Z,17.60
2018-09-14T18:25:55.996Z,16.27
2018-09-14T18:28:25.291Z,20.07
2018-09-14T18:30:54.129Z,19.50
2018-09-14T18:33:22.932Z,17.73
2018-09-14T18:35:51.590Z,18.33
2018-09-14T18:38:20.053Z,19.47
2018-09-14T18:40:49.559Z,16.63
2018-09-14T18:43:18.304Z,18.33
2018-09-14T18:45:47.551Z,17.00
2018-09-14T18:48:16.496Z,15.20
2018-09-14T18:50:45.217Z,14.93
2018-09-14T18:53:14.326Z,12.87
2018-09-14T18:55:44.023Z,15.10
2018-09-14T18:58:12.652Z,12.90
2018-09-14T19:00:41.327Z,13.20
2018-09-14T19:03:10.327Z,13.90
2018-09-14T19:05:40.625Z,16.03
2018-09-14T19:08:10.002Z,16.00
2018-09-14T19:10:38.623Z,14.17
2018-09-14T19:13:07.891Z,14.97
2018-09-14T19:15:36.723Z,13.10
2018-09-14T19:18:05.721Z,13.40
2018-09-14T19:20:34.299Z,15.30
2018-09-14T19:23:03.383Z,16.63
2018-09-14T19:25:31.991Z,20.40
2018-09-14T19:28:01.247Z,14.27
2018-09-14T19:30:30.163Z,15.47
2018-09-14T19:32:58.848Z,15.10
2018-09-14T19:35:28.063Z,15.53
2018-09-14T19:37:56.707Z,15.10
2018-09-14T19:40:25.393Z,17.07
2018-09-14T19:42:54.269Z,16.27
2018-09-14T19:45:23.064Z,16.03
2018-09-14T19:47:52.265Z,13.27
2018-09-14T19:50:21.151Z,12.73
2018-09-14T19:52:50.281Z,12.70
2018-09-14T19:55:19.056Z,14.97
2018-09-14T19:57:47.677Z,14.13
2018-09-14T20:00:16.768Z,14.93
2018-09-14T20:02:45.805Z,15.80
2018-09-14T20:05:14.398Z,14.83
2018-09-14T20:07:43.178Z,14.60
2018-09-14T20:10:12.118Z,17.70
2018-09-14T20:12:42.114Z,15.83
2018-09-14T20:15:11.283Z,16.03
2018-09-14T20:17:40.344Z,15.50
2018-09-14T20:20:09.498Z,15.30
2018-09-14T20:22:38.323Z,17.07
2018-09-14T20:25:08.801Z,15.87
2018-09-14T20:27:37.483Z,17.03
2018-09-14T20:30:07.242Z,18.23
2018-09-14T20:32:37.292Z,16.37
2018-09-14T20:35:06.771Z,19.37
2018-09-14T20:37:37.836Z,16.47
2018-09-14T20:40:06.698Z,15.90
2018-09-14T20:42:35.464Z,15.40
2018-09-14T20:45:04.484Z,18.33
2018-09-14T20:47:33.445Z,15.67
2018-09-14T20:50:03.084Z,17.83
2018-09-14T20:52:32.042Z,15.13
2018-09-14T20:55:00.644Z,16.60
2018-09-14T20:57:29.657Z,15.97
2018-09-14T20:59:58.264Z,16.27
2018-09-14T21:02:26.840Z,19.30
2018-09-14T21:04:55.571Z,16.23
2018-09-14T21:07:24.510Z,15.80
2018-09-14T21:09:53.749Z,15.63
2018-09-14T21:12:22.470Z,17.23
2018-09-14T21:14:51.146Z,18.23
2018-09-14T21:17:20.685Z,17.07
2018-09-14T21:19:49.316Z,17.13
2018-09-14T21:22:17.910Z,17.10
2018-09-14T21:24:47.689Z,15.50
2018-09-14T21:27:16.464Z,18.57
2018-09-14T21:29:45.199Z,15.07
2018-09-14T21:32:13.804Z,15.47
2018-09-14T21:34:42.767Z,16.93
2018-09-14T21:37:11.407Z,15.77
2018-09-14T21:39:40.087Z,13.80
2018-09-14T21:42:08.701Z,16.40
2018-09-14T21:44:37.271Z,16.13
2018-09-14T21:47:07.364Z,14.73
2018-09-14T21:49:36.412Z,15.57
2018-09-14T21:52:04.950Z,16.10
2018-09-14T21:54:33.779Z,14.73
2018-09-14T21:57:02.447Z,17.57
2018-09-14T21:59:31.579Z,14.13
2018-09-14T22:02:00.363Z,13.90
2018-09-14T22:04:28.998Z,13.60
2018-09-14T22:06:57.604Z,14.03
2018-09-14T22:09:26.135Z,15.57
2018-09-14T22:11:54.725Z,18.23
2018-09-14T22:14:23.318Z,13.97
2018-09-14T22:16:51.926Z,13.87
2018-09-14T22:19:20.578Z,12.23
2018-09-14T22:21:49.205Z,12.40
2018-09-14T22:24:17.952Z,13.47
2018-09-14T22:26:46.711Z,13.00
2018-09-14T22:29:15.571Z,12.17
2018-09-14T22:31:44.120Z,11.97
2018-09-14T22:34:12.687Z,11.90
2018-09-14T22:36:41.355Z,12.40
2018-09-14T22:39:11.636Z,13.93
2018-09-14T22:41:40.280Z,14.70
2018-09-14T22:44:09.036Z,13.53
2018-09-14T22:46:37.650Z,13.30
2018-09-14T22:49:06.387Z,13.50
2018-09-14T22:51:34.975Z,14.30
2018-09-14T22:54:03.824Z,14.57
2018-09-14T22:56:32.447Z,12.50
2018-09-14T22:59:01.086Z,13.77
2018-09-14T23:01:29.822Z,12.57
2018-09-14T23:03:58.561Z,14.37
2018-09-14T23:06:27.135Z,13.43
2018-09-14T23:08:55.749Z,13.17
2018-09-14T23:11:24.366Z,12.70
2018-09-14T23:13:53.098Z,13.07
2018-09-14T23:16:21.750Z,12.70
2018-09-14T23:18:51.323Z,13.43
2018-09-14T23:21:21.673Z,12.80
2018-09-14T23:23:50.191Z,12.57
2018-09-14T23:26:21.168Z,13.90
2018-09-14T23:28:49.793Z,13.47
2018-09-14T23:31:18.541Z,14.13
2018-09-14T23:33:47.269Z,14.50
2018-09-14T23:36:15.800Z,12.93
2018-09-14T23:38:44.363Z,13.07
2018-09-14T23:41:12.915Z,12.97
2018-09-14T23:43:41.360Z,12.33
2018-09-14T23:46:09.967Z,13.07
2018-09-14T23:48:38.719Z,13.40
2018-09-14T23:51:07.352Z,14.30
2018-09-14T23:53:37.475Z,19.77
2018-09-14T23:56:06.097Z,15.60
2018-09-14T23:58:34.780Z,13.53
